sensor_id;sensor_type;location;lat;lon;timestamp;P1;durP1;ratioP1;P2;durP2;ratioP2
72087;SDS011;59961;50.232;8.616;2023-09-12T00:00:29;13.20;;;4.57;;
72087;SDS011;59961;50.232;8.616;2023-09-12T00:02:54;12.40;;;5.25;;
72087;SDS011;59961;50.232;8.616;2023-09-12T00:05:19;12.50;;;5.00;;
72087;SDS011;59961;50.232;8.616;2023-09-12T00:07:45;15.00;;;5.47;;
72087;SDS011;59961;50.232;8.616;2023-09-12T00:10:10;14.60;;;5.60;;
72087;SDS011;59961;50.232;8.616;2023-09-12T00:12:35;13.33;;;5.43;;
72087;SDS011;59961;50.232;8.616;2023-09-12T00:15:00;12.55;;;5.50;;
72087;SDS011;59961;50.232;8.616;2023-09-12T00:17:25;14.07;;;5.10;;
72087;SDS011;59961;50.232;8.616;2023-09-12T00:19:51;13.90;;;4.80;;
72087;SDS011;59961;50.232;8.616;2023-09-12T00:22:17;16.70;;;5.13;;
72087;SDS011;59961;50.232;8.616;2023-09-12T00:24:42;13.67;;;5.50;;
72087;SDS011;59961;50.232;8.616;2023-09-12T00:34:51;18.30;;;5.60;;
72087;SDS011;59961;50.232;8.616;2023-09-12T00:37:16;13.75;;;5.60;;
72087;SDS011;59961;50.232;8.616;2023-09-12T00:39:41;13.57;;;5.50;;
72087;SDS011;59961;50.232;8.616;2023-09-12T00:42:06;11.80;;;4.70;;
72087;SDS011;59961;50.232;8.616;2023-09-12T00:44:32;15.95;;;5.43;;
72087;SDS011;59961;50.232;8.616;2023-09-12T00:46:57;12.20;;;5.60;;
72087;SDS011;59961;50.232;8.616;2023-09-12T00:49:23;14.10;;;5.43;;
72087;SDS011;59961;50.232;8.616;2023-09-12T00:51:48;14.10;;;5.30;;
72087;SDS011;59961;50.232;8.616;2023-09-12T00:54:14;11.45;;;5.60;;
72087;SDS011;59961;50.232;8.616;2023-09-12T00:56:40;14.33;;;5.57;;
72087;SDS011;59961;50.232;8.616;2023-09-12T00:59:05;13.47;;;5.90;;
72087;SDS011;59961;50.232;8.616;2023-09-12T01:01:31;10.93;;;5.60;;
72087;SDS011;59961;50.232;8.616;2023-09-12T01:03:56;11.85;;;4.95;;
72087;SDS011;59961;50.232;8.616;2023-09-12T01:06:22;14.07;;;5.17;;
72087;SDS011;59961;50.232;8.616;2023-09-12T01:08:48;12.73;;;4.80;;
72087;SDS011;59961;50.232;8.616;2023-09-12T01:11:13;16.73;;;5.47;;
72087;SDS011;59961;50.232;8.616;2023-09-12T01:13:39;18.10;;;5.47;;
72087;SDS011;59961;50.232;8.616;2023-09-12T01:16:04;19.10;;;5.82;;
72087;SDS011;59961;50.232;8.616;2023-09-12T01:18:29;13.77;;;5.78;;
72087;SDS011;59961;50.232;8.616;2023-09-12T01:28:25;10.55;;;5.13;;
72087;SDS011;59961;50.232;8.616;2023-09-12T01:30:53;13.30;;;4.93;;
72087;SDS011;59961;50.232;8.616;2023-09-12T01:33:19;14.70;;;5.90;;
72087;SDS011;59961;50.232;8.616;2023-09-12T01:35:44;11.23;;;5.37;;
72087;SDS011;59961;50.232;8.616;2023-09-12T01:38:11;15.68;;;5.72;;
72087;SDS011;59961;50.232;8.616;2023-09-12T01:40:47;12.73;;;5.67;;
72087;SDS011;59961;50.232;8.616;2023-09-12T01:43:13;16.02;;;5.40;;
72087;SDS011;59961;50.232;8.616;2023-09-12T01:45:40;15.40;;;5.82;;
72087;SDS011;59961;50.232;8.616;2023-09-12T01:48:06;11.50;;;5.00;;
72087;SDS011;59961;50.232;8.616;2023-09-12T01:50:31;12.07;;;5.60;;
72087;SDS011;59961;50.232;8.616;2023-09-12T01:52:57;15.25;;;6.05;;
72087;SDS011;59961;50.232;8.616;2023-09-12T01:55:23;14.05;;;5.45;;
72087;SDS011;59961;50.232;8.616;2023-09-12T01:57:49;16.23;;;6.27;;
72087;SDS011;59961;50.232;8.616;2023-09-12T02:00:14;11.53;;;5.00;;
72087;SDS011;59961;50.232;8.616;2023-09-12T02:02:42;12.63;;;4.82;;
72087;SDS011;59961;50.232;8.616;2023-09-12T02:05:25;12.95;;;5.20;;
72087;SDS011;59961;50.232;8.616;2023-09-12T02:07:51;11.27;;;5.60;;
72087;SDS011;59961;50.232;8.616;2023-09-12T02:10:16;12.35;;;5.82;;
72087;SDS011;59961;50.232;8.616;2023-09-12T02:12:42;15.17;;;5.70;;
72087;SDS011;59961;50.232;8.616;2023-09-12T02:15:08;13.35;;;4.85;;
72087;SDS011;59961;50.232;8.616;2023-09-12T02:17:33;11.90;;;4.97;;
72087;SDS011;59961;50.232;8.616;2023-09-12T02:19:58;15.57;;;6.45;;
72087;SDS011;59961;50.232;8.616;2023-09-12T02:22:23;14.27;;;5.97;;
72087;SDS011;59961;50.232;8.616;2023-09-12T02:24:49;13.65;;;5.20;;
72087;SDS011;59961;50.232;8.616;2023-09-12T02:27:14;10.60;;;5.67;;
72087;SDS011;59961;50.232;8.616;2023-09-12T02:29:39;14.15;;;5.85;;
72087;SDS011;59961;50.232;8.616;2023-09-12T02:32:05;11.23;;;5.60;;
72087;SDS011;59961;50.232;8.616;2023-09-12T02:34:30;10.73;;;5.73;;
72087;SDS011;59961;50.232;8.616;2023-09-12T02:36:55;12.88;;;6.25;;
72087;SDS011;59961;50.232;8.616;2023-09-12T02:39:20;13.00;;;5.40;;
72087;SDS011;59961;50.232;8.616;2023-09-12T02:41:45;11.70;;;5.23;;
72087;SDS011;59961;50.232;8.616;2023-09-12T02:44:10;16.35;;;5.93;;
72087;SDS011;59961;50.232;8.616;2023-09-12T02:46:36;13.23;;;6.40;;
72087;SDS011;59961;50.232;8.616;2023-09-12T02:49:01;18.77;;;6.43;;
72087;SDS011;59961;50.232;8.616;2023-09-12T02:51:26;10.20;;;5.38;;
72087;SDS011;59961;50.232;8.616;2023-09-12T02:53:51;12.23;;;5.30;;
72087;SDS011;59961;50.232;8.616;2023-09-12T02:56:17;14.77;;;5.40;;
72087;SDS011;59961;50.232;8.616;2023-09-12T02:58:42;13.57;;;5.80;;
72087;SDS011;59961;50.232;8.616;2023-09-12T03:01:07;11.57;;;5.90;;
72087;SDS011;59961;50.232;8.616;2023-09-12T03:03:32;12.75;;;5.97;;
72087;SDS011;59961;50.232;8.616;2023-09-12T03:11:08;13.88;;;6.15;;
72087;SDS011;59961;50.232;8.616;2023-09-12T03:13:33;13.17;;;5.60;;
72087;SDS011;59961;50.232;8.616;2023-09-12T03:15:59;11.47;;;5.17;;
72087;SDS011;59961;50.232;8.616;2023-09-12T03:18:24;14.07;;;5.93;;
72087;SDS011;59961;50.232;8.616;2023-09-12T03:31:10;11.83;;;6.17;;
72087;SDS011;59961;50.232;8.616;2023-09-12T03:33:39;12.93;;;5.78;;
72087;SDS011;59961;50.232;8.616;2023-09-12T03:36:08;14.10;;;6.53;;
72087;SDS011;59961;50.232;8.616;2023-09-12T03:38:33;14.03;;;5.70;;
72087;SDS011;59961;50.232;8.616;2023-09-12T03:40:59;15.77;;;5.88;;
72087;SDS011;59961;50.232;8.616;2023-09-12T03:43:24;11.47;;;5.80;;
72087;SDS011;59961;50.232;8.616;2023-09-12T03:45:49;12.60;;;5.43;;
72087;SDS011;59961;50.232;8.616;2023-09-12T03:48:15;15.43;;;5.50;;
72087;SDS011;59961;50.232;8.616;2023-09-12T03:50:40;11.67;;;5.97;;
72087;SDS011;59961;50.232;8.616;2023-09-12T03:53:05;10.57;;;5.68;;
72087;SDS011;59961;50.232;8.616;2023-09-12T03:55:30;10.97;;;5.30;;
72087;SDS011;59961;50.232;8.616;2023-09-12T03:57:55;14.87;;;5.87;;
72087;SDS011;59961;50.232;8.616;2023-09-12T04:00:21;15.83;;;6.10;;
72087;SDS011;59961;50.232;8.616;2023-09-12T04:02:46;17.45;;;5.75;;
72087;SDS011;59961;50.232;8.616;2023-09-12T04:05:11;12.93;;;5.70;;
72087;SDS011;59961;50.232;8.616;2023-09-12T04:07:36;9.07;;;5.28;;
72087;SDS011;59961;50.232;8.616;2023-09-12T04:10:01;14.77;;;5.20;;
72087;SDS011;59961;50.232;8.616;2023-09-12T04:12:27;14.97;;;5.67;;
72087;SDS011;59961;50.232;8.616;2023-09-12T04:14:52;13.07;;;5.35;;
72087;SDS011;59961;50.232;8.616;2023-09-12T04:17:17;12.13;;;5.13;;
72087;SDS011;59961;50.232;8.616;2023-09-12T04:19:43;13.57;;;5.43;;
72087;SDS011;59961;50.232;8.616;2023-09-12T04:22:08;11.02;;;5.28;;
72087;SDS011;59961;50.232;8.616;2023-09-12T04:24:33;10.75;;;5.13;;
72087;SDS011;59961;50.232;8.616;2023-09-12T04:29:33;13.20;;;5.38;;
72087;SDS011;59961;50.232;8.616;2023-09-12T04:32:01;13.23;;;6.05;;
72087;SDS011;59961;50.232;8.616;2023-09-12T04:34:26;14.10;;;6.10;;
72087;SDS011;59961;50.232;8.616;2023-09-12T04:36:52;18.70;;;6.35;;
72087;SDS011;59961;50.232;8.616;2023-09-12T04:39:17;11.93;;;5.43;;
72087;SDS011;59961;50.232;8.616;2023-09-12T04:41:42;11.65;;;5.95;;
72087;SDS011;59961;50.232;8.616;2023-09-12T04:44:07;13.65;;;5.45;;
72087;SDS011;59961;50.232;8.616;2023-09-12T04:46:33;13.07;;;5.90;;
72087;SDS011;59961;50.232;8.616;2023-09-12T04:48:58;11.75;;;5.72;;
72087;SDS011;59961;50.232;8.616;2023-09-12T04:51:23;14.63;;;5.53;;
72087;SDS011;59961;50.232;8.616;2023-09-12T04:53:48;14.13;;;5.82;;
72087;SDS011;59961;50.232;8.616;2023-09-12T04:56:16;15.75;;;5.93;;
72087;SDS011;59961;50.232;8.616;2023-09-12T04:58:41;16.37;;;5.90;;
72087;SDS011;59961;50.232;8.616;2023-09-12T05:01:07;13.48;;;5.70;;
72087;SDS011;59961;50.232;8.616;2023-09-12T05:03:32;10.02;;;5.13;;
72087;SDS011;59961;50.232;8.616;2023-09-12T05:05:58;12.17;;;5.53;;
72087;SDS011;59961;50.232;8.616;2023-09-12T05:08:23;13.90;;;5.85;;
72087;SDS011;59961;50.232;8.616;2023-09-12T05:10:49;12.23;;;5.23;;
72087;SDS011;59961;50.232;8.616;2023-09-12T05:13:14;10.33;;;5.33;;
72087;SDS011;59961;50.232;8.616;2023-09-12T05:15:40;15.37;;;6.40;;
72087;SDS011;59961;50.232;8.616;2023-09-12T05:18:05;16.05;;;5.57;;
72087;SDS011;59961;50.232;8.616;2023-09-12T05:20:31;11.13;;;4.87;;
72087;SDS011;59961;50.232;8.616;2023-09-12T05:22:56;10.17;;;5.50;;
72087;SDS011;59961;50.232;8.616;2023-09-12T05:25:21;12.73;;;5.78;;
72087;SDS011;59961;50.232;8.616;2023-09-12T05:27:47;11.40;;;6.00;;
72087;SDS011;59961;50.232;8.616;2023-09-12T05:30:12;10.88;;;5.20;;
72087;SDS011;59961;50.232;8.616;2023-09-12T05:32:37;14.37;;;5.67;;
72087;SDS011;59961;50.232;8.616;2023-09-12T05:35:02;12.27;;;6.03;;
72087;SDS011;59961;50.232;8.616;2023-09-12T05:37:27;11.67;;;5.90;;
72087;SDS011;59961;50.232;8.616;2023-09-12T05:39:53;15.50;;;6.10;;
72087;SDS011;59961;50.232;8.616;2023-09-12T05:42:18;12.80;;;6.20;;
72087;SDS011;59961;50.232;8.616;2023-09-12T05:44:47;11.68;;;6.55;;
72087;SDS011;59961;50.232;8.616;2023-09-12T05:47:12;15.38;;;6.20;;
72087;SDS011;59961;50.232;8.616;2023-09-12T05:49:37;15.02;;;5.75;;
72087;SDS011;59961;50.232;8.616;2023-09-12T05:52:02;12.20;;;5.78;;
72087;SDS011;59961;50.232;8.616;2023-09-12T05:54:27;14.20;;;6.33;;
72087;SDS011;59961;50.232;8.616;2023-09-12T05:56:53;10.55;;;6.28;;
72087;SDS011;59961;50.232;8.616;2023-09-12T05:59:18;13.00;;;6.23;;
72087;SDS011;59961;50.232;8.616;2023-09-12T06:01:44;16.08;;;5.70;;
72087;SDS011;59961;50.232;8.616;2023-09-12T06:04:09;12.73;;;6.13;;
72087;SDS011;59961;50.232;8.616;2023-09-12T06:06:34;12.33;;;5.90;;
72087;SDS011;59961;50.232;8.616;2023-09-12T06:09:01;12.23;;;6.20;;
72087;SDS011;59961;50.232;8.616;2023-09-12T06:11:27;14.02;;;6.40;;
72087;SDS011;59961;50.232;8.616;2023-09-12T06:13:52;14.00;;;6.30;;
72087;SDS011;59961;50.232;8.616;2023-09-12T06:16:17;11.50;;;6.63;;
72087;SDS011;59961;50.232;8.616;2023-09-12T06:18:44;16.10;;;5.85;;
72087;SDS011;59961;50.232;8.616;2023-09-12T06:21:09;14.03;;;6.63;;
72087;SDS011;59961;50.232;8.616;2023-09-12T06:23:34;13.85;;;6.18;;
72087;SDS011;59961;50.232;8.616;2023-09-12T06:25:59;16.07;;;6.50;;
72087;SDS011;59961;50.232;8.616;2023-09-12T06:28:25;12.02;;;6.18;;
72087;SDS011;59961;50.232;8.616;2023-09-12T06:30:51;10.82;;;6.45;;
72087;SDS011;59961;50.232;8.616;2023-09-12T06:33:16;12.90;;;6.17;;
72087;SDS011;59961;50.232;8.616;2023-09-12T06:35:41;15.33;;;5.87;;
72087;SDS011;59961;50.232;8.616;2023-09-12T06:38:06;15.50;;;6.30;;
72087;SDS011;59961;50.232;8.616;2023-09-12T06:40:31;13.02;;;6.15;;
72087;SDS011;59961;50.232;8.616;2023-09-12T06:42:56;14.00;;;6.00;;
72087;SDS011;59961;50.232;8.616;2023-09-12T06:45:22;16.83;;;6.57;;
72087;SDS011;59961;50.232;8.616;2023-09-12T06:47:47;12.87;;;5.97;;
72087;SDS011;59961;50.232;8.616;2023-09-12T06:50:12;14.17;;;7.13;;
72087;SDS011;59961;50.232;8.616;2023-09-12T06:52:37;13.65;;;6.00;;
72087;SDS011;59961;50.232;8.616;2023-09-12T06:55:02;15.55;;;6.00;;
72087;SDS011;59961;50.232;8.616;2023-09-12T06:57:27;11.80;;;6.13;;
72087;SDS011;59961;50.232;8.616;2023-09-12T06:59:54;13.77;;;5.90;;
72087;SDS011;59961;50.232;8.616;2023-09-12T07:02:19;14.23;;;7.03;;
72087;SDS011;59961;50.232;8.616;2023-09-12T07:04:44;12.00;;;5.75;;
72087;SDS011;59961;50.232;8.616;2023-09-12T07:07:09;14.30;;;5.75;;
72087;SDS011;59961;50.232;8.616;2023-09-12T07:09:34;13.35;;;6.20;;
72087;SDS011;59961;50.232;8.616;2023-09-12T07:11:59;12.80;;;6.73;;
72087;SDS011;59961;50.232;8.616;2023-09-12T07:14:24;12.50;;;6.57;;
72087;SDS011;59961;50.232;8.616;2023-09-12T07:16:50;11.82;;;6.38;;
72087;SDS011;59961;50.232;8.616;2023-09-12T07:19:15;12.53;;;6.63;;
72087;SDS011;59961;50.232;8.616;2023-09-12T07:21:40;13.03;;;6.57;;
72087;SDS011;59961;50.232;8.616;2023-09-12T07:24:06;17.27;;;6.40;;
72087;SDS011;59961;50.232;8.616;2023-09-12T07:26:31;16.23;;;6.43;;
72087;SDS011;59961;50.232;8.616;2023-09-12T07:28:57;14.10;;;5.83;;
72087;SDS011;59961;50.232;8.616;2023-09-12T07:31:23;15.07;;;6.88;;
72087;SDS011;59961;50.232;8.616;2023-09-12T07:33:48;11.57;;;5.97;;
72087;SDS011;59961;50.232;8.616;2023-09-12T07:36:13;12.98;;;5.82;;
72087;SDS011;59961;50.232;8.616;2023-09-12T07:38:38;12.40;;;5.60;;
72087;SDS011;59961;50.232;8.616;2023-09-12T07:41:03;13.60;;;5.20;;
72087;SDS011;59961;50.232;8.616;2023-09-12T07:46:04;12.20;;;5.53;;
72087;SDS011;59961;50.232;8.616;2023-09-12T07:48:29;13.33;;;5.63;;
72087;SDS011;59961;50.232;8.616;2023-09-12T07:50:54;11.20;;;4.73;;
72087;SDS011;59961;50.232;8.616;2023-09-12T07:53:19;11.27;;;4.73;;
72087;SDS011;59961;50.232;8.616;2023-09-12T07:55:44;16.93;;;5.00;;
72087;SDS011;59961;50.232;8.616;2023-09-12T07:58:13;11.02;;;4.68;;
72087;SDS011;59961;50.232;8.616;2023-09-12T08:00:38;12.82;;;5.20;;
72087;SDS011;59961;50.232;8.616;2023-09-12T08:03:04;9.53;;;4.83;;
72087;SDS011;59961;50.232;8.616;2023-09-12T08:05:29;10.45;;;4.70;;
72087;SDS011;59961;50.232;8.616;2023-09-12T08:07:54;11.23;;;4.85;;
72087;SDS011;59961;50.232;8.616;2023-09-12T08:10:21;9.83;;;4.97;;
72087;SDS011;59961;50.232;8.616;2023-09-12T08:12:46;10.68;;;4.25;;
72087;SDS011;59961;50.232;8.616;2023-09-12T08:15:11;12.73;;;4.70;;
72087;SDS011;59961;50.232;8.616;2023-09-12T08:17:37;14.50;;;5.70;;
72087;SDS011;59961;50.232;8.616;2023-09-12T08:20:03;10.07;;;4.97;;
72087;SDS011;59961;50.232;8.616;2023-09-12T08:22:28;13.00;;;4.87;;
72087;SDS011;59961;50.232;8.616;2023-09-12T08:24:53;14.10;;;4.82;;
72087;SDS011;59961;50.232;8.616;2023-09-12T08:27:19;14.43;;;5.63;;
72087;SDS011;59961;50.232;8.616;2023-09-12T08:29:45;14.88;;;5.85;;
72087;SDS011;59961;50.232;8.616;2023-09-12T08:32:13;17.07;;;5.67;;
72087;SDS011;59961;50.232;8.616;2023-09-12T08:34:38;11.68;;;4.70;;
72087;SDS011;59961;50.232;8.616;2023-09-12T08:37:03;15.63;;;5.53;;
72087;SDS011;59961;50.232;8.616;2023-09-12T08:39:36;11.03;;;5.00;;
72087;SDS011;59961;50.232;8.616;2023-09-12T08:42:04;13.95;;;5.05;;
72087;SDS011;59961;50.232;8.616;2023-09-12T08:44:29;14.07;;;5.20;;
72087;SDS011;59961;50.232;8.616;2023-09-12T08:46:54;8.10;;;4.07;;
72087;SDS011;59961;50.232;8.616;2023-09-12T08:49:19;11.83;;;4.80;;
72087;SDS011;59961;50.232;8.616;2023-09-12T08:51:45;13.13;;;4.70;;
72087;SDS011;59961;50.232;8.616;2023-09-12T08:54:10;9.87;;;4.30;;
72087;SDS011;59961;50.232;8.616;2023-09-12T08:56:36;13.10;;;4.30;;
72087;SDS011;59961;50.232;8.616;2023-09-12T08:59:01;11.77;;;4.53;;
72087;SDS011;59961;50.232;8.616;2023-09-12T09:01:30;11.02;;;4.95;;
72087;SDS011;59961;50.232;8.616;2023-09-12T09:03:55;12.55;;;4.60;;
72087;SDS011;59961;50.232;8.616;2023-09-12T09:06:22;12.57;;;4.30;;
72087;SDS011;59961;50.232;8.616;2023-09-12T09:08:47;10.32;;;4.30;;
72087;SDS011;59961;50.232;8.616;2023-09-12T09:11:13;12.27;;;4.70;;
72087;SDS011;59961;50.232;8.616;2023-09-12T09:13:38;12.25;;;4.78;;
72087;SDS011;59961;50.232;8.616;2023-09-12T09:16:13;16.95;;;4.60;;
72087;SDS011;59961;50.232;8.616;2023-09-12T09:21:29;10.82;;;4.95;;
72087;SDS011;59961;50.232;8.616;2023-09-12T09:23:57;12.32;;;4.47;;
72087;SDS011;59961;50.232;8.616;2023-09-12T09:26:22;12.18;;;5.28;;
72087;SDS011;59961;50.232;8.616;2023-09-12T09:29:02;11.82;;;4.78;;
72087;SDS011;59961;50.232;8.616;2023-09-12T09:31:28;10.03;;;4.40;;
72087;SDS011;59961;50.232;8.616;2023-09-12T09:33:54;10.00;;;4.70;;
72087;SDS011;59961;50.232;8.616;2023-09-12T09:36:20;12.32;;;5.20;;
72087;SDS011;59961;50.232;8.616;2023-09-12T09:41:48;11.07;;;4.40;;
72087;SDS011;59961;50.232;8.616;2023-09-12T09:44:14;12.40;;;4.68;;
72087;SDS011;59961;50.232;8.616;2023-09-12T09:46:39;13.63;;;4.47;;
72087;SDS011;59961;50.232;8.616;2023-09-12T09:49:09;11.00;;;5.35;;
72087;SDS011;59961;50.232;8.616;2023-09-12T09:51:40;10.53;;;4.20;;
72087;SDS011;59961;50.232;8.616;2023-09-12T09:54:08;9.38;;;5.10;;
72087;SDS011;59961;50.232;8.616;2023-09-12T09:56:33;12.40;;;4.87;;
72087;SDS011;59961;50.232;8.616;2023-09-12T09:59:11;10.10;;;5.00;;
72087;SDS011;59961;50.232;8.616;2023-09-12T10:01:38;9.68;;;4.22;;
72087;SDS011;59961;50.232;8.616;2023-09-12T10:09:14;11.80;;;5.03;;
72087;SDS011;59961;50.232;8.616;2023-09-12T10:11:41;8.43;;;4.40;;
72087;SDS011;59961;50.232;8.616;2023-09-12T10:14:07;11.93;;;4.30;;
72087;SDS011;59961;50.232;8.616;2023-09-12T10:16:33;13.20;;;4.43;;
72087;SDS011;59961;50.232;8.616;2023-09-12T10:21:27;10.85;;;4.75;;
72087;SDS011;59961;50.232;8.616;2023-09-12T10:23:54;10.30;;;4.63;;
72087;SDS011;59961;50.232;8.616;2023-09-12T10:26:20;12.37;;;4.73;;
72087;SDS011;59961;50.232;8.616;2023-09-12T10:28:45;9.90;;;4.43;;
72087;SDS011;59961;50.232;8.616;2023-09-12T10:31:12;10.20;;;5.07;;
72087;SDS011;59961;50.232;8.616;2023-09-12T10:33:37;12.20;;;4.23;;
72087;SDS011;59961;50.232;8.616;2023-09-12T10:36:02;9.57;;;4.67;;
72087;SDS011;59961;50.232;8.616;2023-09-12T10:38:28;12.90;;;4.80;;
72087;SDS011;59961;50.232;8.616;2023-09-12T10:40:55;14.60;;;4.82;;
72087;SDS011;59961;50.232;8.616;2023-09-12T10:43:20;10.40;;;4.25;;
72087;SDS011;59961;50.232;8.616;2023-09-12T10:45:46;13.23;;;5.07;;
72087;SDS011;59961;50.232;8.616;2023-09-12T10:48:13;10.95;;;4.72;;
72087;SDS011;59961;50.232;8.616;2023-09-12T10:50:38;10.50;;;4.53;;
72087;SDS011;59961;50.232;8.616;2023-09-12T10:53:08;12.52;;;4.78;;
72087;SDS011;59961;50.232;8.616;2023-09-12T10:55:34;18.67;;;5.28;;
72087;SDS011;59961;50.232;8.616;2023-09-12T10:57:59;12.63;;;4.37;;
72087;SDS011;59961;50.232;8.616;2023-09-12T11:00:24;11.17;;;4.60;;
72087;SDS011;59961;50.232;8.616;2023-09-12T11:02:50;12.60;;;4.95;;
72087;SDS011;59961;50.232;8.616;2023-09-12T11:07:56;13.88;;;4.70;;
72087;SDS011;59961;50.232;8.616;2023-09-12T11:10:21;11.95;;;5.32;;
72087;SDS011;59961;50.232;8.616;2023-09-12T11:15:26;13.68;;;4.95;;
72087;SDS011;59961;50.232;8.616;2023-09-12T11:18:01;11.15;;;4.47;;
72087;SDS011;59961;50.232;8.616;2023-09-12T11:20:48;10.55;;;4.28;;
72087;SDS011;59961;50.232;8.616;2023-09-12T11:23:13;12.30;;;4.67;;
72087;SDS011;59961;50.232;8.616;2023-09-12T11:28:14;12.47;;;4.50;;
72087;SDS011;59961;50.232;8.616;2023-09-12T11:30:40;11.60;;;4.63;;
72087;SDS011;59961;50.232;8.616;2023-09-12T11:33:20;12.13;;;5.05;;
72087;SDS011;59961;50.232;8.616;2023-09-12T11:35:45;15.23;;;5.20;;
72087;SDS011;59961;50.232;8.616;2023-09-12T11:51:06;13.33;;;4.83;;
72087;SDS011;59961;50.232;8.616;2023-09-12T11:53:32;11.05;;;5.38;;
72087;SDS011;59961;50.232;8.616;2023-09-12T11:56:00;16.15;;;5.75;;
72087;SDS011;59961;50.232;8.616;2023-09-12T11:58:26;13.93;;;4.53;;
72087;SDS011;59961;50.232;8.616;2023-09-12T12:00:56;14.27;;;5.53;;
72087;SDS011;59961;50.232;8.616;2023-09-12T12:03:22;12.45;;;4.88;;
72087;SDS011;59961;50.232;8.616;2023-09-12T12:05:48;12.57;;;4.63;;
72087;SDS011;59961;50.232;8.616;2023-09-12T12:08:14;10.07;;;5.05;;
72087;SDS011;59961;50.232;8.616;2023-09-12T12:10:39;12.13;;;4.30;;
72087;SDS011;59961;50.232;8.616;2023-09-12T12:13:05;8.35;;;4.63;;
72087;SDS011;59961;50.232;8.616;2023-09-12T12:15:30;10.87;;;4.83;;
72087;SDS011;59961;50.232;8.616;2023-09-12T12:17:57;15.60;;;5.82;;
72087;SDS011;59961;50.232;8.616;2023-09-12T12:20:23;16.77;;;5.03;;
72087;SDS011;59961;50.232;8.616;2023-09-12T12:22:48;13.10;;;5.33;;
72087;SDS011;59961;50.232;8.616;2023-09-12T12:25:14;10.00;;;4.63;;
72087;SDS011;59961;50.232;8.616;2023-09-12T12:32:49;12.77;;;5.13;;
72087;SDS011;59961;50.232;8.616;2023-09-12T12:37:50;11.93;;;4.85;;
72087;SDS011;59961;50.232;8.616;2023-09-12T12:40:16;16.13;;;5.05;;
72087;SDS011;59961;50.232;8.616;2023-09-12T12:42:42;10.70;;;5.37;;
72087;SDS011;59961;50.232;8.616;2023-09-12T12:45:14;16.10;;;5.90;;
72087;SDS011;59961;50.232;8.616;2023-09-12T12:47:39;10.90;;;5.47;;
72087;SDS011;59961;50.232;8.616;2023-09-12T12:50:11;13.38;;;5.50;;
72087;SDS011;59961;50.232;8.616;2023-09-12T12:52:37;13.23;;;5.97;;
72087;SDS011;59961;50.232;8.616;2023-09-12T12:55:03;11.65;;;5.20;;
72087;SDS011;59961;50.232;8.616;2023-09-12T12:57:28;10.73;;;5.53;;
72087;SDS011;59961;50.232;8.616;2023-09-12T12:59:53;13.07;;;5.38;;
72087;SDS011;59961;50.232;8.616;2023-09-12T13:02:18;10.73;;;5.37;;
72087;SDS011;59961;50.232;8.616;2023-09-12T13:04:44;15.27;;;5.50;;
72087;SDS011;59961;50.232;8.616;2023-09-12T13:07:09;11.53;;;4.90;;
72087;SDS011;59961;50.232;8.616;2023-09-12T13:09:35;12.48;;;5.05;;
72087;SDS011;59961;50.232;8.616;2023-09-12T13:12:02;12.60;;;5.40;;
72087;SDS011;59961;50.232;8.616;2023-09-12T13:14:27;14.15;;;5.65;;
72087;SDS011;59961;50.232;8.616;2023-09-12T13:16:56;12.77;;;5.40;;
72087;SDS011;59961;50.232;8.616;2023-09-12T13:19:21;10.87;;;5.83;;
72087;SDS011;59961;50.232;8.616;2023-09-12T13:21:46;12.80;;;5.75;;
72087;SDS011;59961;50.232;8.616;2023-09-12T13:24:12;10.33;;;5.93;;
72087;SDS011;59961;50.232;8.616;2023-09-12T13:26:38;14.35;;;5.45;;
72087;SDS011;59961;50.232;8.616;2023-09-12T13:29:05;16.35;;;6.07;;
72087;SDS011;59961;50.232;8.616;2023-09-12T13:31:30;14.32;;;5.90;;
72087;SDS011;59961;50.232;8.616;2023-09-12T13:33:56;13.73;;;5.50;;
72087;SDS011;59961;50.232;8.616;2023-09-12T13:36:21;11.23;;;5.75;;
72087;SDS011;59961;50.232;8.616;2023-09-12T13:38:48;11.30;;;5.20;;
72087;SDS011;59961;50.232;8.616;2023-09-12T13:41:16;17.20;;;4.88;;
72087;SDS011;59961;50.232;8.616;2023-09-12T13:43:41;14.48;;;5.55;;
72087;SDS011;59961;50.232;8.616;2023-09-12T13:46:06;11.63;;;5.13;;
72087;SDS011;59961;50.232;8.616;2023-09-12T13:48:34;10.50;;;5.70;;
72087;SDS011;59961;50.232;8.616;2023-09-12T13:50:59;11.10;;;4.97;;
72087;SDS011;59961;50.232;8.616;2023-09-12T13:53:24;14.90;;;6.10;;
72087;SDS011;59961;50.232;8.616;2023-09-12T13:55:50;13.67;;;5.93;;
72087;SDS011;59961;50.232;8.616;2023-09-12T13:58:15;12.63;;;5.57;;
72087;SDS011;59961;50.232;8.616;2023-09-12T14:00:40;13.87;;;5.10;;
72087;SDS011;59961;50.232;8.616;2023-09-12T14:03:05;13.43;;;7.18;;
72087;SDS011;59961;50.232;8.616;2023-09-12T14:05:31;13.65;;;6.10;;
72087;SDS011;59961;50.232;8.616;2023-09-12T14:07:56;15.27;;;5.80;;
72087;SDS011;59961;50.232;8.616;2023-09-12T14:10:21;13.63;;;5.93;;
72087;SDS011;59961;50.232;8.616;2023-09-12T14:12:46;13.80;;;5.40;;
72087;SDS011;59961;50.232;8.616;2023-09-12T14:15:11;14.87;;;5.87;;
72087;SDS011;59961;50.232;8.616;2023-09-12T14:17:37;12.13;;;5.60;;
72087;SDS011;59961;50.232;8.616;2023-09-12T14:20:02;13.27;;;5.53;;
72087;SDS011;59961;50.232;8.616;2023-09-12T14:22:27;10.60;;;5.93;;
72087;SDS011;59961;50.232;8.616;2023-09-12T14:24:54;11.32;;;6.20;;
72087;SDS011;59961;50.232;8.616;2023-09-12T14:27:19;16.27;;;5.63;;
72087;SDS011;59961;50.232;8.616;2023-09-12T14:29:44;11.70;;;5.13;;
72087;SDS011;59961;50.232;8.616;2023-09-12T14:32:11;11.80;;;5.28;;
72087;SDS011;59961;50.232;8.616;2023-09-12T14:34:36;11.88;;;5.40;;
72087;SDS011;59961;50.232;8.616;2023-09-12T14:37:01;12.65;;;5.82;;
72087;SDS011;59961;50.232;8.616;2023-09-12T14:39:27;12.57;;;5.87;;
72087;SDS011;59961;50.232;8.616;2023-09-12T14:41:52;10.43;;;5.45;;
72087;SDS011;59961;50.232;8.616;2023-09-12T14:44:17;15.53;;;5.77;;
72087;SDS011;59961;50.232;8.616;2023-09-12T14:46:43;12.57;;;6.03;;
72087;SDS011;59961;50.232;8.616;2023-09-12T14:49:08;15.18;;;6.28;;
72087;SDS011;59961;50.232;8.616;2023-09-12T14:51:35;13.50;;;6.30;;
72087;SDS011;59961;50.232;8.616;2023-09-12T14:54:01;13.83;;;5.33;;
72087;SDS011;59961;50.232;8.616;2023-09-12T14:56:26;12.60;;;5.80;;
72087;SDS011;59961;50.232;8.616;2023-09-12T14:58:51;12.30;;;5.67;;
72087;SDS011;59961;50.232;8.616;2023-09-12T15:01:16;16.55;;;5.80;;
72087;SDS011;59961;50.232;8.616;2023-09-12T15:03:41;10.02;;;5.30;;
72087;SDS011;59961;50.232;8.616;2023-09-12T15:06:07;16.23;;;5.35;;
72087;SDS011;59961;50.232;8.616;2023-09-12T15:08:32;13.75;;;5.70;;
72087;SDS011;59961;50.232;8.616;2023-09-12T15:10:57;13.97;;;5.40;;
72087;SDS011;59961;50.232;8.616;2023-09-12T15:13:22;10.83;;;5.40;;
72087;SDS011;59961;50.232;8.616;2023-09-12T15:15:48;11.53;;;5.13;;
72087;SDS011;59961;50.232;8.616;2023-09-12T15:18:13;12.15;;;5.60;;
72087;SDS011;59961;50.232;8.616;2023-09-12T15:20:38;11.32;;;6.50;;
72087;SDS011;59961;50.232;8.616;2023-09-12T15:23:03;17.63;;;6.17;;
72087;SDS011;59961;50.232;8.616;2023-09-12T15:25:29;13.93;;;5.47;;
72087;SDS011;59961;50.232;8.616;2023-09-12T15:27:58;12.50;;;5.40;;
72087;SDS011;59961;50.232;8.616;2023-09-12T15:30:23;12.30;;;5.63;;
72087;SDS011;59961;50.232;8.616;2023-09-12T15:32:48;17.37;;;7.83;;
72087;SDS011;59961;50.232;8.616;2023-09-12T15:35:13;11.60;;;5.53;;
72087;SDS011;59961;50.232;8.616;2023-09-12T15:37:38;14.67;;;5.87;;
72087;SDS011;59961;50.232;8.616;2023-09-12T15:40:04;11.27;;;5.07;;
72087;SDS011;59961;50.232;8.616;2023-09-12T15:42:30;12.82;;;5.95;;
72087;SDS011;59961;50.232;8.616;2023-09-12T15:44:55;11.80;;;5.07;;